Meteo Giornale » Osservazioni meteo Italia » Firenze-Peretola

ore: 15:50 - Osservazioni Meteo Firenze-Peretola
Lat. 43° 48' N Lon. 11° 12' E Alt. 40 metri s.l.m.

nuvoloso Europe/Rome

30 °C

Nuvoloso

Temp. 24 Ore

21 °C

34 °C

Nord

5.5 Km/h

Dew point 15 °C

Umidità 40 %

Visibilità  10 Km

Il sole sorge alle ore 05:46

Il sole tramonta alle ore 20:55

Data e Ora Cielo e Fenomeni T °C DP °C Um. % Pres. hPa Vis. km Vento km/h
Oggi h: 15:50 nuvoloso Nuvoloso 30 15 40 1010 10 N 5.5
Oggi h: 15:20 nuvoloso Nuvoloso 30 15 40 1010 10 N 5.5
Oggi h: 14:50 nuvoloso Nuvoloso 30 17 45 1011 10 SO 7.4
Oggi h: 13:50 sereno Sereno 30 17 45 1012 10 N 7.4
Oggi h: 13:20 sereno Sereno 30 16 42 1012 10 S/SO 7.4
Oggi h: 12:50 sereno Sereno 29 16 45 1012 10 N 7.4
Oggi h: 12:20 sereno Sereno 30 16 42 1012 10 N 7.4
Oggi h: 11:50 sereno Sereno 29 15 42 1013 10 N 5.5
Oggi h: 11:20 sereno Sereno 29 18 51 1013 10 N 5.5
Oggi h: 10:50 sereno Sereno 28 17 51 1013 10 S/SO 9.3
Oggi h: 10:20 sereno Sereno 28 18 54 1013 10 N 5.5
Oggi h: 09:50 sereno Sereno 27 19 61 1013 10 N 3.7
Oggi h: 09:20 sereno Sereno 26 20 69 1014 10 N 1.8
Oggi h: 08:50 poco_nuvoloso Poco Nuvoloso 25 20 73 1014 10 N 3.7
Oggi h: 08:20 poco_nuvoloso Poco Nuvoloso 25 20 73 1014 10 N 1.8
Oggi h: 07:50 poco_nuvoloso Poco Nuvoloso 24 19 73 1014 10 N 5.5
Oggi h: 07:20 poco_nuvoloso Poco Nuvoloso 23 19 78 1014 10 E/SE 7.4
Oggi h: 06:50 nuvoloso Nuvoloso 21 19 88 1014 10 N 5.5
Oggi h: 06:20 nuvoloso Nuvoloso 21 19 88 1014 10 E/SE 9.3
Oggi h: 05:50 nuvoloso Nuvoloso 22 19 83 1014 10 N 5.5
Oggi h: 05:20 poco_nuvoloso Poco Nuvoloso 21 19 88 1014 10 N 1.8
Oggi h: 04:50 sereno Sereno 22 19 83 1014 10 N 3.7
Oggi h: 04:20 sereno Sereno 21 19 88 1013 10 N 3.7
Oggi h: 03:20 sereno Sereno 21 19 88 1013 10 N 3.7
Oggi h: 02:50 sereno Sereno 21 19 88 1013 10 N 5.5
Oggi h: 02:20 sereno Sereno 22 20 88 1014 10 N 5.5
Oggi h: 01:50 sereno Sereno 22 20 88 1014 10 N 3.7
Oggi h: 01:20 sereno Sereno 23 19 78 1014 10 N 1.8
Oggi h: 00:50 sereno Sereno 22 18 78 1014 10 N 3.7
Oggi h: 00:20 sereno Sereno 22 18 78 1014 10 N 3.7
Ieri h: 23:50 sereno Sereno 23 18 73 1014 10 N 3.7
Ieri h: 23:20 sereno Sereno 22 18 78 1014 10 N 1.8
Ieri h: 22:50 sereno Sereno 23 18 73 1014 10 N 3.7
Ieri h: 22:20 sereno Sereno 25 18 65 1013 10 N 5.5
Ieri h: 21:50 sereno Sereno 24 17 64 1013 10 N 1.8
Ieri h: 21:20 sereno Sereno 26 16 54 1013 10 N 3.7
Ieri h: 20:20 sereno Sereno 26 16 54 1012 10 O/NO 9.3
Ieri h: 19:50 poco_nuvoloso Poco Nuvoloso 27 17 54 1012 10 O/NO 7.4
Ieri h: 19:20 poco_nuvoloso Poco Nuvoloso 28 17 51 1012 10 N 7.4
Ieri h: 18:50 nuvoloso Nuvoloso 28 16 48 1013 10 N 31.5
Ieri h: 18:20 poco_nuvoloso Poco Nuvoloso 31 20 52 1012 10 SO 24
Ieri h: 17:50 poco_nuvoloso Poco Nuvoloso 32 19 46 1012 10 O/SO 24
Ieri h: 17:20 poco_nuvoloso Poco Nuvoloso 33 20 46 1011 10 O 20.3
Ieri h: 16:50 poco_nuvoloso Poco Nuvoloso 34 19 41 1011 10 O/SO 20.3